Greenbush, Virginia
Current Conditions -  °F | °C
As of 1:55 AM on Monday 24 Nov 2014 (Local Time) from KMFV Reporting Station
Light Rain Light Rain  
Wind Chill: 61°   Ceiling: 2200
Heat Index: 61°   Visibility: 5mi
Dew Point: 59°   Wind: 15mph
Humidity: 94%   Direction: 170°S
Pressure: 29.82"   Gusts: 26mph
Location:  37.74°N, 75.68°W
Report Text: KMFV 240655Z AUTO 17013G23KT 5SM -RA SCT007 BKN022 OVC028 16/15 A2982 RMK AO2 P0007
Loading
Personal Weather Stations






























Interactive Weather Map New forecast layout! Learn more

10-Day Weather Forecast

Advertisements
Track Severe Weather on mobile